Tiempo atmosférico en la estación meteorológica de Pedraza, Segovia (1107 m.)



Fecha
DESCASC
Temp. máxima en grados centígrados (hora)
DESCASC
Temp. mínima en grados centígrados (hora)
DESCASC
Temp. media en grados centígrados
DESCASC
Racha de viento máxima en m/sg (hora)
DESCASC
Velocidad máxima media en intervalos de 10 minutos(hora)
DESCASC
Precipitaciones diarias en mm
DESCASC
Precipitaciones de 00:00 a 06:00 en mm
DESCASC
Precipitaciones de 06:00 a 12:00 en mm
DESCASC
Precipitaciones de 12:00 a 18:00 en mm
DESCASC
Precipitaciones de 18:00 a 24:00 en mm
DESCASC
22-01-2020 6.1 (12:40) 1.2 (03:20) 3.6 12.22 (04:30) 6.39 (11:30) 0 0 0 0 0
21-01-2020 4 (13:50) 0.6 (06:40) 2.3 13.89 (00:10) 8.89 (06:10) 1.2 0 0 0.8 0.4
20-01-2020 2 (15:30) -6.7 (07:20) -2.3 13.33 (21:50) 7.22 (19:00) 0 0 0 0 0
19-01-2020 4.5 (14:20) -2.1 (-00:0) 1.2 14.17 (16:00) 8.33 (16:00) 2.4 0.6 1.6 0.2 0
18-01-2020 11.7 (15:40) 0.8 (00:00) 6.2 16.11 (20:10) 9.17 (20:10) 1 0 0 0 1
17-01-2020 7 (16:20) 1.1 (00:00) 4.1 11.94 (14:00) 7.5 (13:50) 2.8 0.2 2.4 0.2 0
16-01-2020 12.9 (13:50) 5.1 (00:00) 9 13.06 (22:50) 7.5 (14:20) 0.8 0 0 0 0.8
15-01-2020 10.6 (16:50) 3 (00:00) 6.8 13.06 (03:40) 7.78 (03:30) 0 0 0 0 0
14-01-2020 7.9 (16:00) -3.7 (-00:0) 2.1 7.22 (16:10) 4.17 (16:10) 0 0 0 0 0
13-01-2020 8 (16:00) -2 (-00:0) 3 6.11 (11:50) 3.89 (13:40) 0 0 0 0 0
12-01-2020 9.5 (15:10) -2.8 (00:30) 3.4 4.17 (13:20) 3.06 (06:30) 0 0 0 0 0
11-01-2020 8.3 (16:00) -4.3 (-00:0) 2 3.33 (13:20) 2.5 (23:00) 0 0 0 0 0
10-01-2020 5.3 (00:00) 0.2 (00:00) 2.8 11.67 (00:30) 6.39 (00:30) 0 0 0 0 0
09-01-2020 11.4 (15:50) 1.5 (00:00) 6.4 10 (23:50) 6.11 (23:50) 0 0 0 0 0
08-01-2020 14.4 (14:00) 1.5 (00:00) 7.9 4.44 (13:50) 2.78 (05:20) 0 0 0 0 0
07-01-2020 13.9 (15:30) 0.1 (00:00) 7 3.61 (07:40) 2.78 (07:40) 0 0 0 0 0
06-01-2020 13.8 (15:10) 0.9 (00:00) 7.4 5 (15:20) 3.61 (15:20) 0 0 0 0 0
05-01-2020 8.6 (14:20) -2.9 (-00:0) 2.9 3.06 (13:20) 2.22 (15:20) 0 0 0 0 0
04-01-2020 6.6 (14:10) -0.8 (-00:0) 2.9 5 (14:30) 2.5 (14:30) 0 0 0 0 0
03-01-2020 4.8 (00:10) 0.4 (00:00) 2.6 3.89 (10:20) 2.5 (23:10) 0 0 0 0 0
02-01-2020 14.4 (13:40) 2.2 (00:00) 8.3 6.11 (13:50) 3.33 (14:10) 0 0 0 0 0
01-01-2020 16 (15:50) 2.6 (00:00) 9.3 3.89 (20:50) 3.33 (20:50) 0 0 0 0 0
31-12-2019 14.6 (15:20) 2 (00:00) 8.3 3.61 (08:20) 3.33 (08:20) 0 0 0 0 0
30-12-2019 -- (--) -- (--) -- -- (--) -- (--) -- 0 0 -- 0
29-12-2019 16.2 (15:20) 3.7 (00:00) 10 4.44 (01:50) 3.61 (03:10) 0 0 0 0 0
28-12-2019 16.5 (12:10) 2.8 (00:00) 9.6 4.17 (09:30) 3.89 (09:10) 0 0 0 0 0
27-12-2019 15.3 (15:40) -0.2 (00:00) 7.6 4.17 (21:00) 3.89 (21:00) 0 0 0 0 0
26-12-2019 11.3 (00:00) 1 (00:00) 6.2 7.78 (01:10) 3.89 (01:10) 0 0 0 0 0

Gráficas

Temp. máximas Temp. mínimas Temp. medias Precipitaciones Rachas de viento máximas Velocidades máximas media en intervalos de 10 minutos

Datos horarios

Fecha y hora oficial Temperatura (ºC) Velocidad del viento (km/h) Dirección del viento Racha (km/h) Dirección de racha Precipitación (mm) Presión (hPa) Tendencia (hPa) Humedad (%)
2020-01-24 23:00:00 3.9 8 Sudeste 15 Sur 0 -- -- 81
2020-01-24 22:00:00 4 8 Sur 13 Sudeste 0 -- -- 80
2020-01-24 21:00:00 2 10 Sudeste 13 Sudeste 0 -- -- 84
2020-01-24 20:00:00 4 3 Sudeste 6 Sudeste 0 -- -- 76
2020-01-24 19:00:00 5.3 7 Sur 22 Sudoeste 0 -- -- 73
2020-01-24 18:00:00 5.7 11 Sur 24 Sur 0 -- -- 72
2020-01-24 17:00:00 6.3 16 Sur 26 Sur 0 -- -- 71
2020-01-24 16:00:00 6.5 11 Sur 27 Sur 0 -- -- 72
2020-01-24 15:00:00 7.2 20 Sur 30 Sur 0 -- -- 70
2020-01-24 14:00:00 6.8 19 Sudeste 30 Sudeste 0 -- -- 71
2020-01-24 13:00:00 6.2 16 Sur 37 Sur 0 -- -- 76
2020-01-24 12:00:00 5.2 11 Sudeste 36 Sudeste 0 -- -- 82
2020-01-24 11:00:00 5.8 20 Sur 31 Sur 0 -- -- 76
2020-01-24 10:00:00 4.4 16 Sudeste 31 Sudeste 0 -- -- 85
2020-01-24 09:00:00 4.7 24 Sur 35 Sudeste 0 -- -- 83
2020-01-24 08:00:00 4.6 8 Sur 25 Sur 0 -- -- 84
2020-01-24 07:00:00 4.6 15 Sur 32 Sur 0 -- -- 83
2020-01-24 06:00:00 4.8 17 Sur 28 Sur 0 -- -- 78
2020-01-24 05:00:00 4.3 15 Sur 35 Sudeste 0 -- -- 83
2020-01-24 04:00:00 4.4 22 Sudeste 35 Sur 0 -- -- 86
2020-01-24 03:00:00 4 14 Sudeste 30 Sur 0 -- -- 87
2020-01-24 02:00:00 4.1 18 Sur 32 Sudeste 0 -- -- 84
2020-01-24 01:00:00 4.3 17 Sudeste 34 Sur 0 -- -- 83
2020-01-24 00:00:00 4.3 16 Sur 32 Sudeste 0 -- -- 82
2020-01-23 23:00:00 4.3 15 Sudeste 42 Sudeste 0 -- -- 82
2020-01-23 22:00:00 4.5 22 Sudeste 38 Sudeste 0 -- -- 81
2020-01-23 21:00:00 4.7 21 Sudeste 38 Sur 0 -- -- 76
2020-01-23 20:00:00 4.8 22 Sudeste 35 Sudeste 0 -- -- 74
2020-01-23 19:00:00 4.8 18 Sudeste 35 Sudeste 0 -- -- 75
2020-01-23 18:00:00 6.1 16 Sudeste 31 Sudeste 0 -- -- 69
2020-01-23 17:00:00 7.6 21 Sur 34 Sudeste 0 -- -- 62
2020-01-23 16:00:00 8.5 17 Sudeste 34 Sudeste 0 -- -- 62
2020-01-23 15:00:00 8.2 19 Sudeste 32 Sudeste 0 -- -- 63
2020-01-23 14:00:00 8.8 17 Sur 27 Sur 0 -- -- 55
2020-01-23 13:00:00 7.4 12 Sudeste 34 Sur 0 -- -- 62
2020-01-23 12:00:00 7.3 18 Sur 29 Sur 0 -- -- 63
2020-01-23 11:00:00 6.8 12 Sur 21 Sur 0 -- -- 59
2020-01-23 10:00:00 4.5 6 Nordeste 18 Sur 0 -- -- 70
2020-01-23 09:00:00 2.8 13 Sur 26 Sudeste 0 -- -- 76
2020-01-23 08:00:00 3 15 Sudeste 33 Este 0 -- -- 77
2020-01-23 07:00:00 3 17 Sudeste 34 Sur 0 -- -- 78
2020-01-23 06:00:00 3.1 21 Sudeste 32 Sudeste 0 -- -- 78
2020-01-23 05:00:00 2.4 14 Sudeste 22 Sur 0 -- -- 80
2020-01-23 04:00:00 2.7 13 Sur 25 Sudeste 0 -- -- 79
2020-01-23 03:00:00 3.3 13 Sur 24 Sur 0 -- -- 78
2020-01-23 02:00:00 3.4 5 Sudeste 14 Sur 0 -- -- 74
2020-01-23 01:00:00 3.1 8 Sur 15 Sur 0 -- -- 78
2020-01-23 00:00:00 3.8 11 Sur 21 Sur 0 -- -- 78
2020-01-22 23:00:00 3.6 12 Sudeste 18 Sudeste 0 -- -- 78
2020-01-22 22:00:00 2.6 4 Este 12 Sudeste 0 -- -- 86
2020-01-22 21:00:00 2 8 Nordeste 9 Nordeste 0 -- -- 88
2020-01-22 20:00:00 2.5 6 Nordeste 10 Nordeste 0 -- -- 87
2020-01-22 19:00:00 3.6 4 Este 14 Nordeste 0 -- -- 85
2020-01-22 18:00:00 4.2 8 Nordeste 16 Nordeste 0 -- -- 81
2020-01-22 17:00:00 4.9 9 Norte 14 Norte 0 -- -- 81
2020-01-22 16:00:00 5.8 4 Este 25 Sudeste 0 -- -- 72
2020-01-22 15:00:00 5.7 12 Sudeste 19 Sudeste 0 -- -- 71
2020-01-22 14:00:00 5.7 12 Este 24 Sudeste 0 -- -- 73
2020-01-22 13:00:00 5.9 13 Este 29 Sudeste 0 -- -- 71
2020-01-22 12:00:00 4.5 16 Sudeste 40 Sudeste 0 -- -- 78
2020-01-22 11:00:00 3.6 17 Sudeste 29 Sudeste 0 -- -- 84
2020-01-22 10:00:00 3.8 18 Sudeste 31 Este 0 -- -- 78
2020-01-22 09:00:00 3.6 14 Este 28 Sudeste 0 -- -- 78
2020-01-22 08:00:00 3.3 13 Sudeste 29 Este 0 -- -- 81
2020-01-22 07:00:00 3.3 14 Sudeste 39 Este 0 -- -- 81
2020-01-22 06:00:00 3.6 17 Sudeste 32 Este 0 -- -- 79
2020-01-22 05:00:00 3.8 23 Sudeste 44 Este 0 -- -- 77
2020-01-22 04:00:00 1.6 2 Nordeste 15 Norte 0 -- -- 90
2020-01-22 03:00:00 1.6 14 Nordeste 26 Nordeste 0 -- -- 90
2020-01-22 02:00:00 3.8 9 Nordeste 32 Este 0 -- -- 81
2020-01-22 01:00:00 2.9 9 Nordeste 26 Nordeste 0 -- -- 84
2020-01-22 00:00:00 2.3 6 Este 28 Nordeste 0 -- -- 89
2020-01-21 23:00:00 1.7 17 Nordeste 38 Este 0 -- -- 91
2020-01-21 22:00:00 2.5 24 Este 48 Este 0.2 -- -- 90
2020-01-21 21:00:00 2.5 26 Nordeste 37 Este 0 -- -- 90
2020-01-21 20:00:00 2.6 23 Nordeste 45 Nordeste 0 -- -- 89
2020-01-21 19:00:00 2 24 Nordeste 40 Nordeste 0.2 -- -- 93
2020-01-21 18:00:00 1.8 22 Nordeste 37 Nordeste 0.2 -- -- 93
2020-01-21 17:00:00 1.5 21 Nordeste 37 Nordeste 0.6 -- -- 93
2020-01-21 16:00:00 2.8 24 Nordeste 47 Este 0 -- -- 85
2020-01-21 15:00:00 3.2 23 Nordeste 40 Nordeste 0 -- -- 83
2020-01-21 14:00:00 4 25 Nordeste 45 Nordeste 0 -- -- 78
2020-01-21 13:00:00 2.3 23 Nordeste 41 Nordeste 0 -- -- 88
2020-01-21 12:00:00 1.8 18 Nordeste 40 Nordeste 0 -- -- 88
2020-01-21 11:00:00 2 24 Nordeste 46 Nordeste 0 -- -- 84
2020-01-21 10:00:00 1.3 27 Nordeste 49 Nordeste 0 -- -- 85
2020-01-21 09:00:00 1 24 Nordeste 44 Nordeste 0 -- -- 83
2020-01-21 08:00:00 1.1 22 Nordeste 40 Nordeste 0 -- -- 82
2020-01-21 07:00:00 0.9 28 Nordeste 49 Nordeste 0 -- -- 81
2020-01-21 06:00:00 0.8 27 Nordeste 46 Nordeste 0 -- -- 76
2020-01-21 05:00:00 1.6 19 Nordeste 42 Este 0 -- -- 70
2020-01-21 04:00:00 2.3 29 Nordeste 41 Nordeste 0 -- -- 67
2020-01-21 03:00:00 2.2 25 Nordeste 46 Nordeste 0 -- -- 66
2020-01-21 02:00:00 2.6 31 Nordeste 48 Nordeste 0 -- -- 66
2020-01-21 01:00:00 1.9 25 Nordeste 50 Nordeste 0 -- -- 69
2020-01-21 00:00:00 1.8 21 Nordeste 40 Norte 0 -- -- 69
2020-01-20 23:00:00 1.7 15 Nordeste 39 Nordeste 0 -- -- 68
2020-01-20 22:00:00 0.6 23 Nordeste 48 Nordeste 0 -- -- 74
2020-01-20 21:00:00 -0.2 22 Nordeste 41 Nordeste 0 -- -- 83
2020-01-20 20:00:00 1.5 12 Este 41 Nordeste 0 -- -- 62
2020-01-20 19:00:00 1.7 26 Nordeste 40 Nordeste 0 -- -- 55
2020-01-20 18:00:00 1.5 14 Este 42 Nordeste 0 -- -- 57
2020-01-20 17:00:00 1.8 18 Nordeste 30 Este 0 -- -- 52
2020-01-20 16:00:00 1.8 14 Nordeste 27 Nordeste 0 -- -- 48
2020-01-20 15:00:00 1.7 13 Nordeste 23 Nordeste 0 -- -- 43
2020-01-20 14:00:00 1.1 7 Norte 22 Nordeste 0 -- -- 47
2020-01-20 13:00:00 0.4 12 Nordeste 22 Nordeste 0 -- -- 46
2020-01-20 12:00:00 -1.1 5 Nordeste 21 Nordeste 0 -- -- 53
2020-01-20 11:00:00 -1.7 2 Sur 7 Nordeste 0 -- -- 60
2020-01-20 10:00:00 -3.4 7 Nordeste 13 Nordeste 0 -- -- 65
2020-01-20 09:00:00 -6.2 3 Sudeste 6 Sudeste 0 -- -- 79
2020-01-20 08:00:00 -6 3 Este 8 Este 0 -- -- 78
2020-01-20 07:00:00 -6.3 2 Sudeste 4 Este 0 -- -- 81
2020-01-20 06:00:00 -5.8 3 Este 8 Nordeste 0 -- -- 78
2020-01-20 05:00:00 -4.7 0 Calma 8 Norte 0 -- -- 73
2020-01-20 04:00:00 -4.2 0 Calma 10 Nordeste 0 -- -- 69
2020-01-20 03:00:00 -4.2 2 Nordeste 5 Sudeste 0 -- -- 71
2020-01-20 02:00:00 -3.6 0 Calma 7 Nordeste 0 -- -- 69
2020-01-20 01:00:00 -2.7 4 Nordeste 17 Nordeste 0 -- -- 64
2020-01-20 00:00:00 -2.1 5 Norte 23 Norte 0 -- -- 63
2020-01-19 23:00:00 -1.8 10 Norte 28 Nordeste 0 -- -- 64
2020-01-19 22:00:00 -1.6 13 Norte 35 Nordeste 0 -- -- 64
2020-01-19 21:00:00 -1.5 13 Norte 41 Norte 0 -- -- 67
2020-01-19 20:00:00 -0.8 22 Norte 44 Norte 0 -- -- 60
2020-01-19 19:00:00 -0.3 20 Norte 45 Norte 0 -- -- 63
2020-01-19 18:00:00 1 22 Norte 46 Norte 0 -- -- 61
2020-01-19 17:00:00 2.2 29 Norte 50 Norte 0 -- -- 59
2020-01-19 16:00:00 3.7 30 Norte 51 Norte 0 -- -- 55
2020-01-19 15:00:00 3.3 22 Norte 45 Norte 0 -- -- 57
2020-01-19 14:00:00 4.1 22 Norte 40 Norte 0 -- -- 59
2020-01-19 13:00:00 2.9 19 Norte 37 Norte 0.2 -- -- 70
2020-01-19 12:00:00 3.1 19 Norte 42 Nordeste 0 -- -- 67
2020-01-19 11:00:00 2.1 17 Norte 39 Norte 0.2 -- -- 80
2020-01-19 10:00:00 1.3 19 Norte 38 Norte 0.2 -- -- 94
2020-01-19 09:00:00 1.4 19 Norte 37 Noroeste 0.8 -- -- 98
2020-01-19 08:00:00 0.5 13 Noroeste 26 Noroeste 0.2 -- -- 98
2020-01-19 07:00:00 1.2 8 Noroeste 13 Oeste 0.2 -- -- 98
2020-01-19 06:00:00 1.3 6 Noroeste 10 Noroeste 0 -- -- 98
2020-01-19 05:00:00 1.6 5 Noroeste 16 Noroeste 0 -- -- 98
2020-01-19 04:00:00 1.8 9 Noroeste 14 Oeste 0 -- -- 97
2020-01-19 03:00:00 2.1 10 Noroeste 24 Norte 0.2 -- -- 97
2020-01-19 02:00:00 2.3 11 Noroeste 24 Oeste 0 -- -- 96
2020-01-19 01:00:00 2.4 13 Oeste 25 Oeste 0.4 -- -- 93
2020-01-19 00:00:00 3 14 Oeste 26 Oeste 0 -- -- 91
2020-01-18 23:00:00 3.7 8 Oeste 28 Oeste 0 -- -- 91
2020-01-18 22:00:00 4.6 22 Noroeste 43 Oeste 0 -- -- 91
2020-01-18 21:00:00 5.7 16 Oeste 58 Oeste 0.2 -- -- 93
2020-01-18 20:00:00 6.7 31 Oeste 56 Oeste 0.8 -- -- 87
2020-01-18 19:00:00 8.9 23 Oeste 44 Oeste 0 -- -- 72
2020-01-18 18:00:00 10 18 Sudoeste 33 Oeste 0 -- -- 72
2020-01-18 17:00:00 10.5 22 Sudoeste 40 Sudoeste 0 -- -- 71
2020-01-18 16:00:00 11.4 25 Sudoeste 39 Sudoeste 0 -- -- 66
2020-01-18 15:00:00 11 24 Sudoeste 38 Sudoeste 0 -- -- 70
2020-01-18 14:00:00 9.7 21 Sudoeste 45 Sudoeste 0 -- -- 84
2020-01-18 13:00:00 10.1 27 Sudoeste 46 Sudoeste 0 -- -- 75
2020-01-18 12:00:00 7.8 8 Oeste 19 Oeste 0 -- -- 82
2020-01-18 11:00:00 6.9 3 Sudeste 10 Sudeste 0 -- -- 78
2020-01-18 10:00:00 4.7 7 Sudeste 12 Este 0 -- -- 77
2020-01-18 09:00:00 3.9 4 Este 6 Este 0 -- -- 75
2020-01-18 08:00:00 3.7 3 Sudeste 8 Sudeste 0 -- -- 75
2020-01-18 07:00:00 3.5 6 Sur 12 Oeste 0 -- -- 75
2020-01-18 06:00:00 3.2 6 Sur 10 Sudeste 0 -- -- 74
2020-01-18 05:00:00 1.9 5 Sudeste 8 Sudeste 0 -- -- 75
2020-01-18 04:00:00 2.6 3 Sudeste 11 Sudeste 0 -- -- 68
2020-01-18 03:00:00 2.7 2 Noroeste 15 Sudeste 0 -- -- 60
2020-01-18 02:00:00 0.8 6 Sur 14 Oeste 0 -- -- 66
2020-01-18 01:00:00 3.3 10 Este 13 Este 0 -- -- 51
2020-01-18 00:00:00 2.1 9 Sudeste 11 Sudeste 0 -- -- 67
2020-01-17 23:00:00 1.6 4 Sudeste 13 Sudeste 0 -- -- 84
2020-01-17 22:00:00 1.1 6 Sudeste 10 Sudeste 0 -- -- 86
2020-01-17 21:00:00 1.6 4 Sudeste 6 Sudeste 0 -- -- 86
2020-01-17 20:00:00 2.4 5 Sudeste 12 Oeste 0 -- -- 84
2020-01-17 19:00:00 4.1 4 Oeste 12 Oeste 0 -- -- 77
2020-01-17 18:00:00 5.8 9 Oeste 22 Oeste 0 -- -- 71
2020-01-17 17:00:00 6.4 13 Oeste 27 Oeste 0 -- -- 72
2020-01-17 16:00:00 6.3 15 Oeste 29 Oeste 0 -- -- 74
2020-01-17 15:00:00 6.2 18 Oeste 36 Noroeste 0 -- -- 72
2020-01-17 14:00:00 6.5 24 Oeste 43 Sudoeste 0 -- -- 75
2020-01-17 13:00:00 5.4 18 Oeste 32 Sudoeste 0.2 -- -- 87
2020-01-17 12:00:00 5 15 Oeste 29 Oeste 0 -- -- 93
2020-01-17 11:00:00 4.3 15 Oeste 30 Oeste 1 -- -- 96
2020-01-17 10:00:00 3.8 17 Noroeste 38 Oeste 1.2 -- -- 93
2020-01-17 09:00:00 5.3 17 Sudoeste 36 Sudoeste 0 -- -- 81
2020-01-17 08:00:00 4.6 14 Sudoeste 31 Sudoeste 0.2 -- -- 83
2020-01-17 07:00:00 5.5 19 Sudoeste 33 Sudoeste 0 -- -- 73
2020-01-17 06:00:00 5.4 17 Sudoeste 26 Sudoeste 0 -- -- 74
2020-01-17 05:00:00 4.4 12 Sudoeste 21 Sudoeste 0 -- -- 77
2020-01-17 04:00:00 5.2 14 Oeste 23 Oeste 0.2 -- -- 74
2020-01-17 03:00:00 5.6 8 Sudoeste 22 Sudoeste 0 -- -- 78
2020-01-17 02:00:00 6 8 Sudoeste 17 Sudoeste 0 -- -- 75
2020-01-17 01:00:00 5.8 9 Sur 16 Sur 0 -- -- 81
2020-01-17 00:00:00 6.2 7 Sudoeste 31 Sudoeste 0.8 -- -- 82
2020-01-16 23:00:00 8.2 16 Sudoeste 47 Sudoeste 0 -- -- 59
2020-01-16 22:00:00 8.6 6 Sudoeste 20 Sur 0 -- -- 50
2020-01-16 21:00:00 8.7 6 Sudoeste 34 Sur 0 -- -- 49
2020-01-16 20:00:00 9 21 Sur 35 Sur 0 -- -- 48
2020-01-16 19:00:00 8.7 17 Sur 27 Sudoeste 0 -- -- 48
2020-01-16 18:00:00 9.2 12 Sudoeste 30 Sudoeste 0 -- -- 45
2020-01-16 17:00:00 10.5 18 Sudoeste 39 Oeste 0 -- -- 45
2020-01-16 16:00:00 12.1 18 Sudoeste 42 Sudoeste 0 -- -- 39
2020-01-16 15:00:00 12.6 22 Sudoeste 39 Sur 0 -- -- 44
2020-01-16 14:00:00 12.6 24 Sur 38 Sur 0 -- -- 55
2020-01-16 13:00:00 11.9 15 Sur 29 Sur 0 -- -- 59
2020-01-16 12:00:00 10.7 21 Sur 37 Sur 0 -- -- 67
2020-01-16 11:00:00 10.9 26 Sur 36 Sur 0 -- -- 66
2020-01-16 10:00:00 8.9 15 Sur 31 Sur 0 -- -- 68
2020-01-16 09:00:00 7.8 16 Sur 29 Sur 0 -- -- 70
2020-01-16 08:00:00 6.1 4 Sudeste 13 Sur 0 -- -- 73
2020-01-16 07:00:00 6.7 9 Sudeste 17 Sudeste 0 -- -- 72
2020-01-16 06:00:00 6.1 6 Sudeste 12 Sudeste 0 -- -- 71
2020-01-16 05:00:00 6.3 5 Sudeste 13 Sudeste 0 -- -- 74
2020-01-16 04:00:00 6.6 6 Sudeste 13 Sur 0 -- -- 74
2020-01-16 03:00:00 6.6 9 Sur 13 Sudeste -- -- -- 74
2020-01-16 02:00:00 5.6 8 Sudeste 11 Sudeste 0 -- -- 77
2020-01-16 01:00:00 6.1 6 Sudeste 8 Sudeste 0 -- -- 81
2020-01-16 00:00:00 6.7 4 Este 9 Este 0 -- -- 81
2020-01-15 23:00:00 6.7 6 Este 8 Este 0 -- -- 81
2020-01-15 22:00:00 7.1 0 Calma 4 Sudoeste 0 -- -- 81
2020-01-15 21:00:00 6.9 2 Sudeste 4 Sudeste 0 -- -- 79
2020-01-15 20:00:00 7.3 2 Este 4 Sudeste 0 -- -- 77
2020-01-15 19:00:00 8.5 3 Norte 12 Oeste 0 -- -- 73
2020-01-15 18:00:00 9.5 8 Oeste 23 Oeste 0 -- -- 69
2020-01-15 17:00:00 10.5 14 Oeste 30 Sudoeste 0 -- -- 64
2020-01-15 16:00:00 9.8 12 Sudoeste 26 Sudoeste 0 -- -- 66
2020-01-15 15:00:00 9.6 18 Sudoeste 35 Oeste 0 -- -- 65
2020-01-15 14:00:00 9.3 22 Oeste 38 Sudoeste 0 -- -- 65
2020-01-15 13:00:00 9.1 9 Oeste 26 Sudoeste 0 -- -- 65
2020-01-15 12:00:00 9.7 15 Sudoeste 31 Sudoeste 0 -- -- 61
2020-01-15 11:00:00 8.9 19 Sudoeste 33 Sudoeste 0 -- -- 62
2020-01-15 10:00:00 5.6 5 Sur 13 Este 0 -- -- 66
2020-01-15 09:00:00 3.9 6 Sudeste 14 Este 0 -- -- 72
2020-01-15 08:00:00 3.9 7 Este 13 Este 0 -- -- 72
2020-01-15 07:00:00 4.1 8 Nordeste 13 Nordeste 0 -- -- 67
2020-01-15 06:00:00 5.8 10 Nordeste 27 Sudoeste 0 -- -- 58
2020-01-15 05:00:00 6.8 13 Sudoeste 41 Sudoeste 0 -- -- 55
2020-01-15 04:00:00 6.8 26 Sudoeste 47 Sudoeste 0 -- -- 59
2020-01-15 03:00:00 7 25 Sudoeste 42 Sudoeste 0 -- -- 61
2020-01-15 02:00:00 6.3 8 Oeste 33 Sudoeste 0 -- -- 63
2020-01-15 01:00:00 4.7 3 Norte 25 Oeste 0 -- -- 69
2020-01-15 00:00:00 4.4 4 Sudeste 8 Sur 0 -- -- 72
2020-01-14 23:00:00 5.3 3 Sudoeste 15 Sudoeste 0 -- -- 66
2020-01-14 22:00:00 5.8 3 Sudoeste 14 Sudoeste 0 -- -- 63
2020-01-14 21:00:00 4.2 9 Sur 19 Sudeste 0 -- -- 67
2020-01-14 20:00:00 2.3 14 Sudeste 19 Sudeste 0 -- -- 80
2020-01-14 19:00:00 2.9 9 Sur 12 Sur 0 -- -- 76
2020-01-14 18:00:00 6.5 2 Oeste 10 Oeste 0 -- -- 66
2020-01-14 17:00:00 7.5 8 Oeste 26 Sudoeste 0 -- -- 61
2020-01-14 16:00:00 7.9 10 Oeste 21 Oeste 0 -- -- 61
2020-01-14 15:00:00 7.3 13 Oeste 23 Oeste 0 -- -- 63
2020-01-14 14:00:00 6 13 Oeste 19 Oeste 0 -- -- 68
2020-01-14 13:00:00 4.3 4 Sur 19 Sur 0 -- -- 73
2020-01-14 12:00:00 1.5 11 Sudeste 18 Sudeste 0 -- -- 84
2020-01-14 11:00:00 -0.1 0 Calma 5 Noroeste 0 -- -- 88
2020-01-14 10:00:00 -0.9 2 Oeste 6 Sudeste 0 -- -- 85
2020-01-14 09:00:00 -3.3 4 Sudeste 6 Sudeste 0 -- -- 84
2020-01-14 08:00:00 -3.4 2 Sur 4 Sudeste 0 -- -- 85
2020-01-14 07:00:00 -3.5 0 Calma 4 Este 0 -- -- 84
2020-01-14 06:00:00 -2 4 Este 8 Este 0 -- -- 81
2020-01-14 05:00:00 -2.4 5 Este 8 Sudeste 0 -- -- 81
2020-01-14 04:00:00 -2.1 0 Calma 9 Noroeste 0 -- -- 77
2020-01-14 03:00:00 -1 2 Sudeste 7 Oeste 0 -- -- 72
2020-01-14 02:00:00 0 3 Sur 10 Sudoeste 0 -- -- 70
2020-01-14 01:00:00 0.9 3 Oeste 18 Oeste 0 -- -- 66
2020-01-14 00:00:00 1.2 4 Sudoeste 13 Sur 0 -- -- 67
2020-01-13 23:00:00 1.6 10 Sudoeste 15 Sudoeste 0 -- -- 65
2020-01-13 22:00:00 0.6 0 Calma 21 Sudeste 0 -- -- 59
2020-01-13 21:00:00 0.7 0 Calma 9 Noroeste 0 -- -- 60
2020-01-13 20:00:00 2.6 3 Sudeste 6 Sudeste 0 -- -- 50
2020-01-13 19:00:00 3 3 Este 17 Sudeste 0 -- -- 58
2020-01-13 18:00:00 5.3 3 Este 7 Este 0 -- -- 49
2020-01-13 17:00:00 7.6 2 Oeste 8 Oeste 0 -- -- 43
2020-01-13 16:00:00 8 6 Sudoeste 17 Sudoeste 0 -- -- 38
2020-01-13 15:00:00 7.2 9 Sudoeste 17 Oeste 0 -- -- 48
2020-01-13 14:00:00 6.7 12 Oeste 22 Oeste 0 -- -- 48
2020-01-13 13:00:00 6.7 13 Oeste 20 Oeste 0 -- -- 47
2020-01-13 12:00:00 5.5 12 Oeste 22 Oeste 0 -- -- 53
2020-01-13 11:00:00 4.5 3 Sur 10 Noroeste 0 -- -- 46
2020-01-13 10:00:00 3 4 Norte 6 Noroeste 0 -- -- 38
2020-01-13 09:00:00 1.7 2 Norte 7 Sudeste 0 -- -- 41
2020-01-13 08:00:00 0.7 2 Sudeste 5 Sudeste 0 -- -- 44
2020-01-13 07:00:00 1.7 5 Sudeste 13 Sudeste 0 -- -- 40
2020-01-13 06:00:00 0 0 Calma 5 Sudeste 0 -- -- 50
2020-01-13 05:00:00 1.1 0 Calma 10 Sudeste 0 -- -- 51
2020-01-13 04:00:00 -0.1 4 Este 9 Sudeste 0 -- -- 62
2020-01-13 03:00:00 -2 4 Sudeste 7 Sudeste 0 -- -- 72
2020-01-13 02:00:00 -0.1 6 Sudeste 7 Sudeste 0 -- -- 62
2020-01-13 01:00:00 -0.8 3 Sudeste 5 Sudeste 0 -- -- 72
2020-01-13 00:00:00 -0.3 3 Este 5 Sudeste 0 -- -- 73
2020-01-12 23:00:00 0.1 0 Calma 7 Sudeste 0 -- -- 68
2020-01-12 22:00:00 0.5 6 Sudeste 12 Sudeste 0 -- -- 66
2020-01-12 21:00:00 -0.2 5 Sudeste 6 Sudeste 0 -- -- 69
2020-01-12 20:00:00 0.7 2 Sudeste 3 Sudeste 0 -- -- 67
2020-01-12 19:00:00 3.2 0 Calma 12 Noroeste 0 -- -- 57
2020-01-12 18:00:00 7.3 5 Noroeste 7 Noroeste 0 -- -- 42
2020-01-12 17:00:00 8.4 6 Noroeste 12 Noroeste 0 -- -- 40
2020-01-12 16:00:00 9.5 8 Noroeste 12 Noroeste 0 -- -- 39
2020-01-12 15:00:00 9.2 3 Norte 13 Noroeste 0 -- -- 35
2020-01-12 14:00:00 8.1 8 Noroeste 15 Oeste 0 -- -- 37
2020-01-12 13:00:00 7.5 7 Noroeste 10 Noroeste 0 -- -- 32
2020-01-12 12:00:00 6 6 Noroeste 9 Noroeste 0 -- -- 38
2020-01-12 11:00:00 4.3 0 Calma 2 Oeste 0 -- -- 40
2020-01-12 10:00:00 2.1 0 Calma 5 Sudeste 0 -- -- 52
2020-01-12 09:00:00 -2.1 3 Sur 9 Sudeste 0 -- -- 41
2020-01-12 08:00:00 -1.7 0 Calma 9 Sudeste 0 -- -- 49
2020-01-12 07:00:00 -0.8 5 Este 13 Sudeste 0 -- -- 43
2020-01-12 06:00:00 -1 2 Este 11 Sudeste 0 -- -- 45
2020-01-12 05:00:00 -0.8 8 Sudeste 11 Sudeste 0 -- -- 45
2020-01-12 04:00:00 -1.6 5 Sudeste 9 Sudeste 0 -- -- 52
2020-01-12 03:00:00 -1 7 Sudeste 11 Sudeste 0 -- -- 52
2020-01-12 02:00:00 -1.7 7 Sudeste 8 Sudeste 0 -- -- 61
2020-01-12 01:00:00 -2.1 3 Sudeste 8 Sudeste 0 -- -- 63
2020-01-12 00:00:00 -2 5 Sudeste 8 Este 0 -- -- 70
2020-01-11 23:00:00 0.2 9 Este 11 Este 0 -- -- 67
2020-01-11 22:00:00 -0.2 5 Sudeste 9 Sudeste 0 -- -- 71
2020-01-11 21:00:00 -0.9 4 Sudeste 6 Sudeste 0 -- -- 80
2020-01-11 20:00:00 0 7 Sudeste 8 Sudeste 0 -- -- 83
2020-01-11 19:00:00 1 4 Sudeste 6 Sudeste 0 -- -- 85
2020-01-11 18:00:00 4.1 2 Noroeste 12 Noroeste 0 -- -- 75
2020-01-11 17:00:00 6.6 7 Noroeste 12 Noroeste 0 -- -- 63
2020-01-11 16:00:00 8.3 5 Noroeste 8 Noroeste 0 -- -- 54
2020-01-11 15:00:00 6.5 3 Noroeste 10 Noroeste 0 -- -- 64
2020-01-11 14:00:00 5.4 6 Noroeste 12 Oeste 0 -- -- 67
2020-01-11 13:00:00 4.4 5 Noroeste 12 Noroeste 0 -- -- 72
2020-01-11 12:00:00 4.3 4 Norte 8 Norte 0 -- -- 70
2020-01-11 11:00:00 3.2 2 Sudoeste 5 Sur 0 -- -- 77
2020-01-11 10:00:00 -0.4 0 Calma 8 Sudeste 0 -- -- 88
2020-01-11 09:00:00 -3.5 7 Sudeste 8 Este 0 -- -- 90
2020-01-11 08:00:00 -3.5 7 Sudeste 8 Sudeste 0 -- -- 92
2020-01-11 07:00:00 -3.4 0 Calma 10 Sudeste 0 -- -- 90
2020-01-11 06:00:00 -3.5 8 Sudeste 10 Sudeste 0 -- -- 92
2020-01-11 05:00:00 -3.1 3 Sudeste 5 Sudeste 0 -- -- 91
2020-01-11 04:00:00 -3.1 2 Sur 6 Sudeste 0 -- -- 92
2020-01-11 03:00:00 -2.8 3 Sudeste 6 Sudeste 0 -- -- 88
2020-01-11 02:00:00 -1.5 5 Sudeste 9 Sudeste 0 -- -- 87
2020-01-11 01:00:00 -1.1 8 Sudeste 10 Sudeste 0 -- -- 86
2020-01-11 00:00:00 0.2 5 Nordeste 11 Este 0 -- -- 87
2020-01-10 23:00:00 0.7 4 Este 8 Este 0 -- -- 87
2020-01-10 22:00:00 1.6 6 Este 10 Este 0 -- -- 86
2020-01-10 21:00:00 2 4 Nordeste 12 Nordeste 0 -- -- 86
2020-01-10 20:00:00 2.2 2 Noroeste 9 Noroeste 0 -- -- 81
2020-01-10 19:00:00 3.5 2 Norte 15 Norte 0 -- -- 77
2020-01-10 18:00:00 4.5 5 Norte 16 Noroeste 0 -- -- 71
2020-01-10 17:00:00 4.7 6 Norte 17 Nordeste 0 -- -- 70
2020-01-10 16:00:00 4.8 8 Norte 16 Norte 0 -- -- 69
2020-01-10 15:00:00 4.4 10 Nordeste 22 Nordeste 0 -- -- 68
2020-01-10 14:00:00 4.4 7 Norte 24 Norte 0 -- -- 72
2020-01-10 13:00:00 4.2 15 Norte 33 Norte 0 -- -- 71
2020-01-10 12:00:00 3.9 12 Norte 29 Norte 0 -- -- 77
2020-01-10 11:00:00 2.7 8 Nordeste 18 Nordeste 0 -- -- 82
2020-01-10 10:00:00 0.5 0 Calma 10 Sudoeste 0 -- -- 94
2020-01-10 09:00:00 0.3 2 Oeste 10 Noroeste 0 -- -- 94
2020-01-10 08:00:00 0.6 4 Oeste 10 Oeste 0 -- -- 93
2020-01-10 07:00:00 0.5 5 Oeste 14 Oeste 0 -- -- 93
2020-01-10 06:00:00 0.8 6 Oeste 14 Oeste 0 -- -- 92
2020-01-10 05:00:00 0.9 7 Noroeste 13 Noroeste 0 -- -- 91
2020-01-10 04:00:00 1.8 8 Oeste 18 Oeste 0 -- -- 87
2020-01-10 03:00:00 2.9 9 Oeste 20 Noroeste 0 -- -- 90
2020-01-10 02:00:00 3.6 13 Noroeste 36 Oeste 0 -- -- 89
2020-01-10 01:00:00 4.5 21 Oeste 42 Oeste 0 -- -- 91
2020-01-10 00:00:00 5.3 22 Oeste 36 Oeste 0 -- -- 87
2020-01-09 23:00:00 6.5 20 Oeste 30 Oeste 0 -- -- 88
2020-01-09 22:00:00 7.6 21 Oeste 34 Oeste 0 -- -- 88
2020-01-09 21:00:00 8 11 Oeste 21 Oeste 0 -- -- 89
2020-01-09 20:00:00 8.2 12 Sudoeste 31 Oeste 0 -- -- 89
2020-01-09 19:00:00 8.4 19 Oeste 31 Oeste 0 -- -- 90
2020-01-09 18:00:00 10 11 Oeste 26 Oeste 0 -- -- 73
2020-01-09 17:00:00 10.8 13 Sudoeste 29 Sudoeste 0 -- -- 70
2020-01-09 16:00:00 11.1 13 Oeste 33 Sudoeste 0 -- -- 68
2020-01-09 15:00:00 11 13 Sudoeste 35 Oeste 0 -- -- 69
2020-01-09 14:00:00 11.1 19 Oeste 32 Oeste 0 -- -- 65
2020-01-09 13:00:00 9 19 Oeste 31 Sudoeste 0 -- -- 72
2020-01-09 12:00:00 9 13 Oeste 20 Oeste 0 -- -- 67
2020-01-09 11:00:00 8 6 Sudoeste 14 Oeste 0 -- -- 66
2020-01-09 10:00:00 5 4 Sur 8 Sudoeste 0 -- -- 68
2020-01-09 09:00:00 2.9 0 Calma 14 Sudeste 0 -- -- 76
2020-01-09 08:00:00 2.5 11 Sudeste 14 Sudeste 0 -- -- 77
2020-01-09 07:00:00 2 0 Calma 6 Norte 0 -- -- 72
2020-01-09 06:00:00 3.5 0 Calma 6 Sudeste 0 -- -- 65
2020-01-09 05:00:00 3.7 0 Calma 10 Sudeste 0 -- -- 65
2020-01-09 04:00:00 3.2 7 Sur 10 Sudeste 0 -- -- 68
2020-01-09 03:00:00 2.2 5 Sudeste 10 Sudeste 0 -- -- 75
2020-01-09 02:00:00 3.2 4 Sudeste 5 Sudeste 0 -- -- 72
2020-01-09 01:00:00 4.6 2 Sur 5 Sudeste 0 -- -- 67
2020-01-09 00:00:00 4.6 4 Sudeste 8 Sudeste 0 -- -- 68
2020-01-08 23:00:00 4 7 Sudeste 10 Sudeste 0 -- -- 77
2020-01-08 22:00:00 4.2 3 Este 5 Sudeste 0 -- -- 80
2020-01-08 21:00:00 4.8 0 Calma 4 Este 0 -- -- 76
2020-01-08 20:00:00 5.1 2 Este 7 Este 0 -- -- 75
2020-01-08 19:00:00 6.2 4 Este 6 Noroeste 0 -- -- 71
2020-01-08 18:00:00 9.8 5 Noroeste 10 Noroeste 0 -- -- 58
2020-01-08 17:00:00 12.2 7 Noroeste 11 Noroeste 0 -- -- 50
2020-01-08 16:00:00 12.8 9 Noroeste 15 Noroeste 0 -- -- 48
2020-01-08 15:00:00 13.5 10 Noroeste 15 Noroeste 0 -- -- 46
2020-01-08 14:00:00 14.4 6 Noroeste 16 Oeste 0 -- -- 41
2020-01-08 13:00:00 13 2 Sudeste 6 Oeste 0 -- -- 34
2020-01-08 12:00:00 10.6 3 Oeste 5 Sudoeste 0 -- -- 30
2020-01-08 11:00:00 8.7 0 Calma 8 Sudeste 0 -- -- 35
2020-01-08 10:00:00 4.4 7 Sudeste 9 Sudeste 0 -- -- 42
2020-01-08 09:00:00 2.3 3 Sudeste 9 Sudeste 0 -- -- 43
2020-01-08 08:00:00 3.4 0 Calma 4 Sudeste 0 -- -- 35
2020-01-08 07:00:00 3 4 Sudeste 6 Sudeste 0 -- -- 35
2020-01-08 06:00:00 3.5 -- -- -- -- 0 -- -- 37
2020-01-08 05:00:00 3.7 6 Sudeste 11 Sudeste 0 -- -- 40
2020-01-08 04:00:00 3.6 8 Sudeste 11 Sudeste 0 -- -- 41
2020-01-08 03:00:00 2.5 9 Sudeste 10 Sudeste 0 -- -- 44
2020-01-08 02:00:00 2.6 0 Calma 6 Sudeste 0 -- -- 50
2020-01-08 01:00:00 2.2 2 Sudeste 3 Sudeste 0 -- -- 52
2020-01-08 00:00:00 4.1 0 Calma 6 Sudeste 0 -- -- 43
2020-01-07 23:00:00 4.4 5 Sudeste 8 Sudeste 0 -- -- 46
2020-01-07 22:00:00 4.6 6 Sudeste 11 Sudeste 0 -- -- 47
2020-01-07 21:00:00 3.8 6 Sudeste 11 Sudeste 0 -- -- 56
2020-01-07 20:00:00 3.2 0 Calma 4 Norte 0 -- -- 55
2020-01-07 19:00:00 6.2 0 Calma 4 Sur 0 -- -- 48
2020-01-07 18:00:00 10.4 2 Noroeste 9 Noroeste 0 -- -- 38
2020-01-07 17:00:00 13.1 5 Noroeste 9 Noroeste 0 -- -- 33
2020-01-07 16:00:00 13.6 3 Norte 8 Oeste 0 -- -- 35
2020-01-07 15:00:00 13.5 3 Sudoeste 12 Noroeste 0 -- -- 32
2020-01-07 14:00:00 11.8 6 Noroeste 10 Noroeste 0 -- -- 27
2020-01-07 13:00:00 10.9 0 Calma 9 Noroeste 0 -- -- 33
2020-01-07 12:00:00 10.5 0 Calma 5 Sur 0 -- -- 32
2020-01-07 11:00:00 7.3 0 Calma 3 Sur 0 -- -- 40
2020-01-07 10:00:00 4 0 Calma 5 Sur 0 -- -- 48
2020-01-07 09:00:00 1 2 Sudeste 8 Sudeste 0 -- -- 50
2020-01-07 08:00:00 2.1 8 Sudeste 13 Sudeste 0 -- -- 42
2020-01-07 07:00:00 1.9 2 Sudeste 8 Sudeste 0 -- -- 48
2020-01-07 06:00:00 -- -- -- -- -- 0 -- -- --
2020-01-07 05:00:00 1 6 Sudeste 12 Sudeste 0 -- -- 54
2020-01-07 04:00:00 2 5 Norte 10 Norte 0 -- -- 53
2020-01-07 03:00:00 0.4 4 Sudeste 6 Sudeste 0 -- -- 63
2020-01-07 02:00:00 2.2 5 Este 9 Sudeste 0 -- -- 50
2020-01-07 01:00:00 3 3 Sudeste 8 Sudeste 0 -- -- 44
2020-01-07 00:00:00 1.8 4 Sudeste 8 Sudeste 0 -- -- 56
2020-01-06 23:00:00 3.8 6 Sudeste 12 Sudeste 0 -- -- 51
2020-01-06 22:00:00 3.7 10 Sur 13 Sudeste 0 -- -- 58
2020-01-06 21:00:00 2.6 6 Sudeste 10 Sudeste 0 -- -- 66
2020-01-06 20:00:00 3.5 4 Sudeste 8 Sudeste 0 -- -- 67
2020-01-06 19:00:00 5.6 2 Este 6 Sudeste 0 -- -- 58
2020-01-06 18:00:00 9.4 4 Noroeste 10 Noroeste 0 -- -- 45
2020-01-06 17:00:00 12.5 2 Sudoeste 12 Noroeste 0 -- -- 38
2020-01-06 16:00:00 12.4 8 Noroeste 18 Noroeste 0 -- -- 38
2020-01-06 15:00:00 13.7 7 Noroeste 11 Noroeste 0 -- -- 29
2020-01-06 14:00:00 11.9 6 Noroeste 17 Noroeste 0 -- -- 39
2020-01-06 13:00:00 11.1 12 Noroeste 17 Oeste 0 -- -- 32
2020-01-06 12:00:00 10.6 5 Oeste 8 Oeste 0 -- -- 37
2020-01-06 11:00:00 9.3 3 Sur 8 Sudeste 0 -- -- 49
2020-01-06 10:00:00 6.5 7 Sudeste 12 Sudeste 0 -- -- 44